sensor_id;sensor_type;location;lat;lon;timestamp;temperature;humidity
17599;DHT22;8918;52.092;5.232;2022-12-01T00:00:39;3.20;99.90
17599;DHT22;8918;52.092;5.232;2022-12-01T00:03:05;3.20;99.90
17599;DHT22;8918;52.092;5.232;2022-12-01T00:05:31;3.20;99.90
17599;DHT22;8918;52.092;5.232;2022-12-01T00:07:57;3.20;99.90
17599;DHT22;8918;52.092;5.232;2022-12-01T00:10:24;3.20;99.90
17599;DHT22;8918;52.092;5.232;2022-12-01T00:12:59;3.30;99.90
17599;DHT22;8918;52.092;5.232;2022-12-01T00:15:31;3.30;99.90
17599;DHT22;8918;52.092;5.232;2022-12-01T00:17:59;3.40;99.90
17599;DHT22;8918;52.092;5.232;2022-12-01T00:20:25;3.50;99.90
17599;DHT22;8918;52.092;5.232;2022-12-01T00:22:51;3.50;99.90
17599;DHT22;8918;52.092;5.232;2022-12-01T00:25:18;3.60;99.90
17599;DHT22;8918;52.092;5.232;2022-12-01T00:27:48;3.60;99.90
17599;DHT22;8918;52.092;5.232;2022-12-01T00:30:14;3.70;99.90
17599;DHT22;8918;52.092;5.232;2022-12-01T00:32:40;3.70;99.90
17599;DHT22;8918;52.092;5.232;2022-12-01T00:35:05;3.70;99.90
17599;DHT22;8918;52.092;5.232;2022-12-01T00:37:32;3.80;99.90
17599;DHT22;8918;52.092;5.232;2022-12-01T00:39:58;3.80;99.90
17599;DHT22;8918;52.092;5.232;2022-12-01T00:42:25;3.90;99.90
17599;DHT22;8918;52.092;5.232;2022-12-01T00:44:50;3.90;99.90
17599;DHT22;8918;52.092;5.232;2022-12-01T00:47:16;4.00;99.90
17599;DHT22;8918;52.092;5.232;2022-12-01T00:49:43;4.00;99.90
17599;DHT22;8918;52.092;5.232;2022-12-01T00:52:14;4.00;99.90
17599;DHT22;8918;52.092;5.232;2022-12-01T00:54:40;4.10;99.90
17599;DHT22;8918;52.092;5.232;2022-12-01T00:57:06;4.20;99.90
17599;DHT22;8918;52.092;5.232;2022-12-01T00:59:32;4.20;99.90
17599;DHT22;8918;52.092;5.232;2022-12-01T01:01:57;4.30;99.90
17599;DHT22;8918;52.092;5.232;2022-12-01T01:04:23;4.30;99.90
17599;DHT22;8918;52.092;5.232;2022-12-01T01:06:49;4.30;99.90
17599;DHT22;8918;52.092;5.232;2022-12-01T01:09:15;4.30;99.90
17599;DHT22;8918;52.092;5.232;2022-12-01T01:11:41;4.40;99.90
17599;DHT22;8918;52.092;5.232;2022-12-01T01:14:07;4.40;99.90
17599;DHT22;8918;52.092;5.232;2022-12-01T01:16:33;4.40;99.90
17599;DHT22;8918;52.092;5.232;2022-12-01T01:18:59;4.40;99.90
17599;DHT22;8918;52.092;5.232;2022-12-01T01:21:26;4.50;99.90
17599;DHT22;8918;52.092;5.232;2022-12-01T01:23:53;4.50;99.90
17599;DHT22;8918;52.092;5.232;2022-12-01T01:26:24;4.50;99.90
17599;DHT22;8918;52.092;5.232;2022-12-01T01:28:51;4.50;99.90
17599;DHT22;8918;52.092;5.232;2022-12-01T01:31:19;4.50;99.90
17599;DHT22;8918;52.092;5.232;2022-12-01T01:33:45;4.60;99.90
17599;DHT22;8918;52.092;5.232;2022-12-01T01:36:12;4.60;99.90
17599;DHT22;8918;52.092;5.232;2022-12-01T01:38:38;4.60;99.90
17599;DHT22;8918;52.092;5.232;2022-12-01T01:41:05;4.60;99.90
17599;DHT22;8918;52.092;5.232;2022-12-01T01:43:49;4.60;99.90
17599;DHT22;8918;52.092;5.232;2022-12-01T01:46:26;4.70;99.90
17599;DHT22;8918;52.092;5.232;2022-12-01T01:49:07;4.70;99.90
17599;DHT22;8918;52.092;5.232;2022-12-01T01:54:06;4.70;99.90
17599;DHT22;8918;52.092;5.232;2022-12-01T01:56:34;4.70;99.90
17599;DHT22;8918;52.092;5.232;2022-12-01T01:59:01;4.80;99.90
17599;DHT22;8918;52.092;5.232;2022-12-01T02:01:27;4.80;99.90
17599;DHT22;8918;52.092;5.232;2022-12-01T02:03:53;4.80;99.90
17599;DHT22;8918;52.092;5.232;2022-12-01T02:06:19;4.80;99.90
17599;DHT22;8918;52.092;5.232;2022-12-01T02:08:45;4.80;99.90
17599;DHT22;8918;52.092;5.232;2022-12-01T02:11:24;4.80;99.90
17599;DHT22;8918;52.092;5.232;2022-12-01T02:14:13;4.90;99.90
17599;DHT22;8918;52.092;5.232;2022-12-01T02:24:59;4.80;99.90
17599;DHT22;8918;52.092;5.232;2022-12-01T02:30:15;4.90;99.90
17599;DHT22;8918;52.092;5.232;2022-12-01T02:33:00;4.90;99.90
17599;DHT22;8918;52.092;5.232;2022-12-01T02:38:55;4.90;99.90
17599;DHT22;8918;52.092;5.232;2022-12-01T02:41:44;4.90;99.90
17599;DHT22;8918;52.092;5.232;2022-12-01T02:44:19;4.90;99.90
17599;DHT22;8918;52.092;5.232;2022-12-01T02:46:59;4.90;99.90
17599;DHT22;8918;52.092;5.232;2022-12-01T02:49:38;4.90;99.90
17599;DHT22;8918;52.092;5.232;2022-12-01T02:52:05;4.90;99.90
17599;DHT22;8918;52.092;5.232;2022-12-01T02:54:32;4.90;99.90
17599;DHT22;8918;52.092;5.232;2022-12-01T02:56:58;4.90;99.90
17599;DHT22;8918;52.092;5.232;2022-12-01T02:59:23;4.90;99.90
17599;DHT22;8918;52.092;5.232;2022-12-01T03:10:12;5.00;99.90
17599;DHT22;8918;52.092;5.232;2022-12-01T03:21:28;5.00;99.90
17599;DHT22;8918;52.092;5.232;2022-12-01T03:23:59;5.00;99.90
17599;DHT22;8918;52.092;5.232;2022-12-01T03:26:28;5.00;99.90
17599;DHT22;8918;52.092;5.232;2022-12-01T03:29:10;5.00;99.90
17599;DHT22;8918;52.092;5.232;2022-12-01T03:31:43;5.00;99.90
17599;DHT22;8918;52.092;5.232;2022-12-01T03:34:33;5.00;99.90
17599;DHT22;8918;52.092;5.232;2022-12-01T03:37:05;5.00;99.90
17599;DHT22;8918;52.092;5.232;2022-12-01T03:39:33;4.90;99.90
17599;DHT22;8918;52.092;5.232;2022-12-01T03:44:37;5.00;99.90
17599;DHT22;8918;52.092;5.232;2022-12-01T03:47:19;5.00;99.90
17599;DHT22;8918;52.092;5.232;2022-12-01T03:49:46;5.00;99.90
17599;DHT22;8918;52.092;5.232;2022-12-01T03:54:54;5.00;99.90
17599;DHT22;8918;52.092;5.232;2022-12-01T03:57:29;4.90;99.90
17599;DHT22;8918;52.092;5.232;2022-12-01T03:59:56;4.90;99.90
17599;DHT22;8918;52.092;5.232;2022-12-01T04:02:22;4.90;99.90
17599;DHT22;8918;52.092;5.232;2022-12-01T04:04:52;4.90;99.90
17599;DHT22;8918;52.092;5.232;2022-12-01T04:07:18;4.90;99.90
17599;DHT22;8918;52.092;5.232;2022-12-01T04:09:44;5.00;99.90
17599;DHT22;8918;52.092;5.232;2022-12-01T04:12:12;4.90;99.90
17599;DHT22;8918;52.092;5.232;2022-12-01T04:15:01;4.90;99.90
17599;DHT22;8918;52.092;5.232;2022-12-01T04:17:27;4.90;99.90
17599;DHT22;8918;52.092;5.232;2022-12-01T04:19:53;4.90;99.90
17599;DHT22;8918;52.092;5.232;2022-12-01T04:22:19;4.90;99.90
17599;DHT22;8918;52.092;5.232;2022-12-01T04:24:45;4.90;99.90
17599;DHT22;8918;52.092;5.232;2022-12-01T04:27:11;4.90;99.90
17599;DHT22;8918;52.092;5.232;2022-12-01T04:29:36;4.90;99.90
17599;DHT22;8918;52.092;5.232;2022-12-01T04:32:02;4.90;99.90
17599;DHT22;8918;52.092;5.232;2022-12-01T04:34:28;4.90;99.90
17599;DHT22;8918;52.092;5.232;2022-12-01T04:36:53;4.90;99.90
17599;DHT22;8918;52.092;5.232;2022-12-01T04:39:19;4.80;99.90
17599;DHT22;8918;52.092;5.232;2022-12-01T04:41:45;4.80;99.90
17599;DHT22;8918;52.092;5.232;2022-12-01T04:44:10;4.90;99.90
17599;DHT22;8918;52.092;5.232;2022-12-01T04:46:36;4.90;99.90
17599;DHT22;8918;52.092;5.232;2022-12-01T04:49:03;4.80;99.90
17599;DHT22;8918;52.092;5.232;2022-12-01T04:51:29;4.90;99.90
17599;DHT22;8918;52.092;5.232;2022-12-01T04:53:55;4.90;99.90
17599;DHT22;8918;52.092;5.232;2022-12-01T04:56:21;4.80;99.90
17599;DHT22;8918;52.092;5.232;2022-12-01T04:58:46;4.80;99.90
17599;DHT22;8918;52.092;5.232;2022-12-01T05:01:15;4.80;99.90
17599;DHT22;8918;52.092;5.232;2022-12-01T05:03:43;4.80;99.90
17599;DHT22;8918;52.092;5.232;2022-12-01T05:06:18;4.80;99.90
17599;DHT22;8918;52.092;5.232;2022-12-01T05:08:44;4.70;99.90
17599;DHT22;8918;52.092;5.232;2022-12-01T05:11:11;4.70;99.90
17599;DHT22;8918;52.092;5.232;2022-12-01T05:13:38;4.70;99.90
17599;DHT22;8918;52.092;5.232;2022-12-01T05:16:06;4.60;99.90
17599;DHT22;8918;52.092;5.232;2022-12-01T05:18:32;4.60;99.90
17599;DHT22;8918;52.092;5.232;2022-12-01T05:20:58;4.60;99.90
17599;DHT22;8918;52.092;5.232;2022-12-01T05:23:28;4.50;99.90
17599;DHT22;8918;52.092;5.232;2022-12-01T05:25:55;4.50;99.90
17599;DHT22;8918;52.092;5.232;2022-12-01T05:28:22;4.40;99.90
17599;DHT22;8918;52.092;5.232;2022-12-01T05:30:49;4.30;99.90
17599;DHT22;8918;52.092;5.232;2022-12-01T05:33:14;4.30;99.90
17599;DHT22;8918;52.092;5.232;2022-12-01T05:35:40;4.30;99.90
17599;DHT22;8918;52.092;5.232;2022-12-01T05:38:06;4.30;99.90
17599;DHT22;8918;52.092;5.232;2022-12-01T05:40:32;4.20;99.90
17599;DHT22;8918;52.092;5.232;2022-12-01T05:42:58;4.20;99.90
17599;DHT22;8918;52.092;5.232;2022-12-01T05:45:24;4.20;99.90
17599;DHT22;8918;52.092;5.232;2022-12-01T05:47:56;4.20;99.90
17599;DHT22;8918;52.092;5.232;2022-12-01T05:50:23;4.20;99.90
17599;DHT22;8918;52.092;5.232;2022-12-01T05:52:49;4.10;99.90
17599;DHT22;8918;52.092;5.232;2022-12-01T05:55:15;4.10;99.90
17599;DHT22;8918;52.092;5.232;2022-12-01T05:57:40;4.10;99.90
17599;DHT22;8918;52.092;5.232;2022-12-01T06:00:07;4.20;99.90
17599;DHT22;8918;52.092;5.232;2022-12-01T06:02:32;4.20;99.90
17599;DHT22;8918;52.092;5.232;2022-12-01T06:04:58;4.10;99.90
17599;DHT22;8918;52.092;5.232;2022-12-01T06:07:23;4.20;99.90
17599;DHT22;8918;52.092;5.232;2022-12-01T06:09:51;4.10;99.90
17599;DHT22;8918;52.092;5.232;2022-12-01T06:12:17;4.10;99.90
17599;DHT22;8918;52.092;5.232;2022-12-01T06:14:43;4.10;99.90
17599;DHT22;8918;52.092;5.232;2022-12-01T06:17:09;4.10;99.90
17599;DHT22;8918;52.092;5.232;2022-12-01T06:19:35;4.10;99.90
17599;DHT22;8918;52.092;5.232;2022-12-01T06:22:00;4.00;99.90
17599;DHT22;8918;52.092;5.232;2022-12-01T06:24:26;4.00;99.90
17599;DHT22;8918;52.092;5.232;2022-12-01T06:26:51;3.90;99.90
17599;DHT22;8918;52.092;5.232;2022-12-01T06:29:17;3.90;99.90
17599;DHT22;8918;52.092;5.232;2022-12-01T06:31:42;3.80;99.90
17599;DHT22;8918;52.092;5.232;2022-12-01T06:34:09;3.80;99.90
17599;DHT22;8918;52.092;5.232;2022-12-01T06:36:34;3.80;99.90
17599;DHT22;8918;52.092;5.232;2022-12-01T06:39:00;3.70;99.90
17599;DHT22;8918;52.092;5.232;2022-12-01T06:41:26;3.70;99.90
17599;DHT22;8918;52.092;5.232;2022-12-01T06:43:51;3.70;99.90
17599;DHT22;8918;52.092;5.232;2022-12-01T06:46:17;3.60;99.90
17599;DHT22;8918;52.092;5.232;2022-12-01T06:48:42;3.60;99.90
17599;DHT22;8918;52.092;5.232;2022-12-01T06:51:08;3.60;99.90
17599;DHT22;8918;52.092;5.232;2022-12-01T06:53:34;3.50;99.90
17599;DHT22;8918;52.092;5.232;2022-12-01T06:56:01;3.50;99.90
17599;DHT22;8918;52.092;5.232;2022-12-01T06:58:26;3.50;99.90
17599;DHT22;8918;52.092;5.232;2022-12-01T07:00:52;3.50;99.90
17599;DHT22;8918;52.092;5.232;2022-12-01T07:03:18;3.50;99.90
17599;DHT22;8918;52.092;5.232;2022-12-01T07:05:43;3.50;99.90
17599;DHT22;8918;52.092;5.232;2022-12-01T07:08:09;3.50;99.90
17599;DHT22;8918;52.092;5.232;2022-12-01T07:10:36;3.50;99.90
17599;DHT22;8918;52.092;5.232;2022-12-01T07:13:02;3.60;99.90
17599;DHT22;8918;52.092;5.232;2022-12-01T07:15:27;3.60;99.90
17599;DHT22;8918;52.092;5.232;2022-12-01T07:17:53;3.60;99.90
17599;DHT22;8918;52.092;5.232;2022-12-01T07:20:18;3.60;99.90
17599;DHT22;8918;52.092;5.232;2022-12-01T07:22:44;3.70;99.90
17599;DHT22;8918;52.092;5.232;2022-12-01T07:25:10;3.70;99.90
17599;DHT22;8918;52.092;5.232;2022-12-01T07:27:35;3.70;99.90
17599;DHT22;8918;52.092;5.232;2022-12-01T07:30:01;3.70;99.90
17599;DHT22;8918;52.092;5.232;2022-12-01T07:32:27;3.70;99.90
17599;DHT22;8918;52.092;5.232;2022-12-01T07:34:52;3.70;99.90
17599;DHT22;8918;52.092;5.232;2022-12-01T07:37:18;3.70;99.90
17599;DHT22;8918;52.092;5.232;2022-12-01T07:39:43;3.80;99.90
17599;DHT22;8918;52.092;5.232;2022-12-01T07:42:09;3.80;99.90
17599;DHT22;8918;52.092;5.232;2022-12-01T07:44:34;3.80;99.90
17599;DHT22;8918;52.092;5.232;2022-12-01T07:47:00;3.80;99.90
17599;DHT22;8918;52.092;5.232;2022-12-01T07:49:26;3.70;99.90
17599;DHT22;8918;52.092;5.232;2022-12-01T07:51:51;3.70;99.90
17599;DHT22;8918;52.092;5.232;2022-12-01T07:54:17;3.70;99.90
17599;DHT22;8918;52.092;5.232;2022-12-01T07:56:45;3.70;99.90
17599;DHT22;8918;52.092;5.232;2022-12-01T07:59:11;3.70;99.90
17599;DHT22;8918;52.092;5.232;2022-12-01T08:01:37;3.70;99.90
17599;DHT22;8918;52.092;5.232;2022-12-01T08:04:03;3.70;99.90
17599;DHT22;8918;52.092;5.232;2022-12-01T08:06:28;3.70;99.90
17599;DHT22;8918;52.092;5.232;2022-12-01T08:08:54;3.70;99.90
17599;DHT22;8918;52.092;5.232;2022-12-01T08:11:24;3.70;99.90
17599;DHT22;8918;52.092;5.232;2022-12-01T08:13:51;3.70;99.90
17599;DHT22;8918;52.092;5.232;2022-12-01T08:16:19;3.70;99.90
17599;DHT22;8918;52.092;5.232;2022-12-01T08:18:45;3.80;99.90
17599;DHT22;8918;52.092;5.232;2022-12-01T08:21:12;3.80;99.90
17599;DHT22;8918;52.092;5.232;2022-12-01T08:23:39;3.80;99.90
17599;DHT22;8918;52.092;5.232;2022-12-01T08:26:12;3.90;99.90
17599;DHT22;8918;52.092;5.232;2022-12-01T08:28:38;3.90;99.90
17599;DHT22;8918;52.092;5.232;2022-12-01T08:31:16;4.00;99.90
17599;DHT22;8918;52.092;5.232;2022-12-01T08:33:42;4.00;99.90
17599;DHT22;8918;52.092;5.232;2022-12-01T08:36:08;4.00;99.90
17599;DHT22;8918;52.092;5.232;2022-12-01T08:38:34;4.00;99.90
17599;DHT22;8918;52.092;5.232;2022-12-01T08:41:06;4.10;99.90
17599;DHT22;8918;52.092;5.232;2022-12-01T08:43:32;4.20;99.90
17599;DHT22;8918;52.092;5.232;2022-12-01T08:45:59;4.20;99.90
17599;DHT22;8918;52.092;5.232;2022-12-01T08:48:25;4.30;99.90
17599;DHT22;8918;52.092;5.232;2022-12-01T08:51:03;4.30;99.90
17599;DHT22;8918;52.092;5.232;2022-12-01T08:53:31;4.30;99.90
17599;DHT22;8918;52.092;5.232;2022-12-01T08:56:06;4.40;99.90
17599;DHT22;8918;52.092;5.232;2022-12-01T08:58:32;4.50;99.90
17599;DHT22;8918;52.092;5.232;2022-12-01T09:01:06;4.60;99.90
17599;DHT22;8918;52.092;5.232;2022-12-01T09:03:32;4.60;99.90
17599;DHT22;8918;52.092;5.232;2022-12-01T09:08:31;4.70;99.90
17599;DHT22;8918;52.092;5.232;2022-12-01T09:10:57;4.70;99.90
17599;DHT22;8918;52.092;5.232;2022-12-01T09:13:23;4.70;99.90
17599;DHT22;8918;52.092;5.232;2022-12-01T09:16:00;4.80;99.90
17599;DHT22;8918;52.092;5.232;2022-12-01T09:18:27;4.80;99.90
17599;DHT22;8918;52.092;5.232;2022-12-01T09:20:53;4.80;99.90
17599;DHT22;8918;52.092;5.232;2022-12-01T09:23:20;5.00;99.90
17599;DHT22;8918;52.092;5.232;2022-12-01T09:25:46;5.00;99.90
17599;DHT22;8918;52.092;5.232;2022-12-01T09:28:12;4.90;99.90
17599;DHT22;8918;52.092;5.232;2022-12-01T09:30:38;5.00;99.90
17599;DHT22;8918;52.092;5.232;2022-12-01T09:33:03;5.00;99.90
17599;DHT22;8918;52.092;5.232;2022-12-01T09:35:30;5.10;99.90
17599;DHT22;8918;52.092;5.232;2022-12-01T09:37:57;5.20;99.90
17599;DHT22;8918;52.092;5.232;2022-12-01T09:40:30;5.30;99.90
17599;DHT22;8918;52.092;5.232;2022-12-01T09:43:00;5.60;99.90
17599;DHT22;8918;52.092;5.232;2022-12-01T09:45:29;6.20;99.90
17599;DHT22;8918;52.092;5.232;2022-12-01T09:47:58;6.60;99.90
17599;DHT22;8918;52.092;5.232;2022-12-01T09:50:24;6.90;99.90
17599;DHT22;8918;52.092;5.232;2022-12-01T09:52:58;7.30;99.90
17599;DHT22;8918;52.092;5.232;2022-12-01T09:55:25;7.70;99.90
17599;DHT22;8918;52.092;5.232;2022-12-01T09:57:54;7.90;99.90
17599;DHT22;8918;52.092;5.232;2022-12-01T10:00:24;8.10;99.90
17599;DHT22;8918;52.092;5.232;2022-12-01T10:02:58;8.30;99.90
17599;DHT22;8918;52.092;5.232;2022-12-01T10:05:32;8.80;99.90
17599;DHT22;8918;52.092;5.232;2022-12-01T10:08:04;9.50;99.90
17599;DHT22;8918;52.092;5.232;2022-12-01T10:10:39;9.70;99.90
17599;DHT22;8918;52.092;5.232;2022-12-01T10:13:18;10.20;99.90
17599;DHT22;8918;52.092;5.232;2022-12-01T10:24:23;11.60;99.90
17599;DHT22;8918;52.092;5.232;2022-12-01T10:30:02;11.60;99.90
17599;DHT22;8918;52.092;5.232;2022-12-01T10:32:54;11.00;99.90
17599;DHT22;8918;52.092;5.232;2022-12-01T10:35:22;10.40;99.90
17599;DHT22;8918;52.092;5.232;2022-12-01T10:37:58;9.80;99.90
17599;DHT22;8918;52.092;5.232;2022-12-01T10:40:25;9.30;99.90
17599;DHT22;8918;52.092;5.232;2022-12-01T10:42:52;8.80;99.90
17599;DHT22;8918;52.092;5.232;2022-12-01T10:45:26;8.40;99.90
17599;DHT22;8918;52.092;5.232;2022-12-01T10:50:41;7.80;99.90
17599;DHT22;8918;52.092;5.232;2022-12-01T10:53:25;7.60;99.90
17599;DHT22;8918;52.092;5.232;2022-12-01T10:56:12;7.40;99.90
17599;DHT22;8918;52.092;5.232;2022-12-01T10:59:01;7.50;99.90
17599;DHT22;8918;52.092;5.232;2022-12-01T11:01:31;7.50;99.90
17599;DHT22;8918;52.092;5.232;2022-12-01T11:04:07;7.40;99.90
17599;DHT22;8918;52.092;5.232;2022-12-01T11:06:33;7.40;99.90
17599;DHT22;8918;52.092;5.232;2022-12-01T11:09:06;7.40;99.90
17599;DHT22;8918;52.092;5.232;2022-12-01T11:11:39;7.50;99.90
17599;DHT22;8918;52.092;5.232;2022-12-01T11:14:15;7.90;99.90
17599;DHT22;8918;52.092;5.232;2022-12-01T11:16:44;8.20;99.90
17599;DHT22;8918;52.092;5.232;2022-12-01T11:19:29;8.20;99.90
17599;DHT22;8918;52.092;5.232;2022-12-01T11:21:58;8.10;99.90
17599;DHT22;8918;52.092;5.232;2022-12-01T11:24:38;8.00;99.90
17599;DHT22;8918;52.092;5.232;2022-12-01T11:27:13;7.90;99.90
17599;DHT22;8918;52.092;5.232;2022-12-01T11:29:39;8.10;99.90
17599;DHT22;8918;52.092;5.232;2022-12-01T11:32:21;8.10;99.90
17599;DHT22;8918;52.092;5.232;2022-12-01T11:34:52;8.20;99.90
17599;DHT22;8918;52.092;5.232;2022-12-01T11:37:22;8.50;99.90
17599;DHT22;8918;52.092;5.232;2022-12-01T11:39:49;8.60;99.90
17599;DHT22;8918;52.092;5.232;2022-12-01T11:44:58;9.20;99.90
17599;DHT22;8918;52.092;5.232;2022-12-01T11:47:26;9.30;99.90
17599;DHT22;8918;52.092;5.232;2022-12-01T11:49:58;9.60;99.90
17599;DHT22;8918;52.092;5.232;2022-12-01T11:54:56;10.30;99.90
17599;DHT22;8918;52.092;5.232;2022-12-01T11:57:23;10.50;99.90
17599;DHT22;8918;52.092;5.232;2022-12-01T11:59:49;10.60;99.90
17599;DHT22;8918;52.092;5.232;2022-12-01T12:10:36;9.80;99.90
17599;DHT22;8918;52.092;5.232;2022-12-01T12:13:28;10.00;99.90
17599;DHT22;8918;52.092;5.232;2022-12-01T12:21:48;11.10;99.90
17599;DHT22;8918;52.092;5.232;2022-12-01T12:32:46;11.40;99.90
17599;DHT22;8918;52.092;5.232;2022-12-01T12:41:29;10.20;99.90
17599;DHT22;8918;52.092;5.232;2022-12-01T12:45:05;9.80;99.90
17599;DHT22;8918;52.092;5.232;2022-12-01T12:50:07;9.10;99.90
17599;DHT22;8918;52.092;5.232;2022-12-01T12:52:45;8.90;99.90
17599;DHT22;8918;52.092;5.232;2022-12-01T12:55:25;8.60;99.90
17599;DHT22;8918;52.092;5.232;2022-12-01T12:58:23;8.40;99.90
17599;DHT22;8918;52.092;5.232;2022-12-01T13:00:54;8.20;99.90
17599;DHT22;8918;52.092;5.232;2022-12-01T13:03:52;8.10;99.90
17599;DHT22;8918;52.092;5.232;2022-12-01T13:06:39;8.00;99.90
17599;DHT22;8918;52.092;5.232;2022-12-01T13:09:25;8.00;99.90
17599;DHT22;8918;52.092;5.232;2022-12-01T13:11:58;8.00;99.90
17599;DHT22;8918;52.092;5.232;2022-12-01T13:17:18;8.00;99.90
17599;DHT22;8918;52.092;5.232;2022-12-01T13:19:45;8.00;99.90
17599;DHT22;8918;52.092;5.232;2022-12-01T13:22:12;8.10;99.90
17599;DHT22;8918;52.092;5.232;2022-12-01T13:24:38;8.10;99.90
17599;DHT22;8918;52.092;5.232;2022-12-01T13:29:37;7.80;99.90
17599;DHT22;8918;52.092;5.232;2022-12-01T13:32:05;7.80;99.90
17599;DHT22;8918;52.092;5.232;2022-12-01T13:34:38;7.90;99.90
17599;DHT22;8918;52.092;5.232;2022-12-01T13:37:05;7.90;99.90
17599;DHT22;8918;52.092;5.232;2022-12-01T13:39:33;7.90;99.90
17599;DHT22;8918;52.092;5.232;2022-12-01T13:42:22;7.90;99.90
17599;DHT22;8918;52.092;5.232;2022-12-01T13:44:57;7.80;99.90
17599;DHT22;8918;52.092;5.232;2022-12-01T13:47:31;7.70;99.90
17599;DHT22;8918;52.092;5.232;2022-12-01T13:53:30;7.60;99.90
17599;DHT22;8918;52.092;5.232;2022-12-01T13:58:46;7.40;99.90
17599;DHT22;8918;52.092;5.232;2022-12-01T14:03:59;7.30;99.90
17599;DHT22;8918;52.092;5.232;2022-12-01T14:06:46;7.30;99.90
17599;DHT22;8918;52.092;5.232;2022-12-01T14:11:56;7.30;99.90
17599;DHT22;8918;52.092;5.232;2022-12-01T14:14:24;7.20;99.90
17599;DHT22;8918;52.092;5.232;2022-12-01T14:16:55;7.20;99.90
17599;DHT22;8918;52.092;5.232;2022-12-01T14:19:34;7.10;99.90
17599;DHT22;8918;52.092;5.232;2022-12-01T14:22:05;7.10;99.90
17599;DHT22;8918;52.092;5.232;2022-12-01T14:24:36;7.10;99.90
17599;DHT22;8918;52.092;5.232;2022-12-01T14:27:03;7.00;99.90
17599;DHT22;8918;52.092;5.232;2022-12-01T14:29:37;7.00;99.90
17599;DHT22;8918;52.092;5.232;2022-12-01T14:34:34;6.90;99.90
17599;DHT22;8918;52.092;5.232;2022-12-01T14:37:18;6.90;99.90
17599;DHT22;8918;52.092;5.232;2022-12-01T14:40:06;6.80;99.90
17599;DHT22;8918;52.092;5.232;2022-12-01T14:42:36;6.80;99.90
17599;DHT22;8918;52.092;5.232;2022-12-01T14:45:37;6.70;99.90
17599;DHT22;8918;52.092;5.232;2022-12-01T14:48:25;6.60;99.90
17599;DHT22;8918;52.092;5.232;2022-12-01T14:53:39;6.60;99.90
17599;DHT22;8918;52.092;5.232;2022-12-01T14:56:12;6.60;99.90
17599;DHT22;8918;52.092;5.232;2022-12-01T14:58:56;6.50;99.90
17599;DHT22;8918;52.092;5.232;2022-12-01T15:01:22;6.50;99.90
17599;DHT22;8918;52.092;5.232;2022-12-01T15:03:53;6.40;99.90
17599;DHT22;8918;52.092;5.232;2022-12-01T15:06:20;6.40;99.90
17599;DHT22;8918;52.092;5.232;2022-12-01T15:09:03;6.30;99.90
17599;DHT22;8918;52.092;5.232;2022-12-01T15:11:30;6.30;99.90
17599;DHT22;8918;52.092;5.232;2022-12-01T15:13:57;6.20;99.90
17599;DHT22;8918;52.092;5.232;2022-12-01T15:16:29;6.20;99.90
17599;DHT22;8918;52.092;5.232;2022-12-01T15:18:55;6.20;99.90
17599;DHT22;8918;52.092;5.232;2022-12-01T15:21:30;6.10;99.90
17599;DHT22;8918;52.092;5.232;2022-12-01T15:26:27;6.10;99.90
17599;DHT22;8918;52.092;5.232;2022-12-01T15:31:50;5.90;99.90
17599;DHT22;8918;52.092;5.232;2022-12-01T15:34:34;5.90;99.90
17599;DHT22;8918;52.092;5.232;2022-12-01T15:37:03;5.80;99.90
17599;DHT22;8918;52.092;5.232;2022-12-01T15:39:32;5.70;99.90
17599;DHT22;8918;52.092;5.232;2022-12-01T15:41:59;5.70;99.90
17599;DHT22;8918;52.092;5.232;2022-12-01T15:44:35;5.70;99.90
17599;DHT22;8918;52.092;5.232;2022-12-01T15:47:33;5.60;99.90
17599;DHT22;8918;52.092;5.232;2022-12-01T15:50:00;5.60;99.90
17599;DHT22;8918;52.092;5.232;2022-12-01T15:52:27;5.50;99.90
17599;DHT22;8918;52.092;5.232;2022-12-01T15:55:01;5.50;99.90
17599;DHT22;8918;52.092;5.232;2022-12-01T15:57:27;5.50;99.90
17599;DHT22;8918;52.092;5.232;2022-12-01T15:59:55;5.40;99.90
17599;DHT22;8918;52.092;5.232;2022-12-01T16:02:29;5.40;99.90
17599;DHT22;8918;52.092;5.232;2022-12-01T16:05:02;5.30;99.90
17599;DHT22;8918;52.092;5.232;2022-12-01T16:07:33;5.30;99.90
17599;DHT22;8918;52.092;5.232;2022-12-01T16:10:00;5.30;99.90
17599;DHT22;8918;52.092;5.232;2022-12-01T16:12:28;5.30;99.90
17599;DHT22;8918;52.092;5.232;2022-12-01T16:17:26;5.20;99.90
17599;DHT22;8918;52.092;5.232;2022-12-01T16:20:30;5.20;99.90
17599;DHT22;8918;52.092;5.232;2022-12-01T16:23:01;5.20;99.90
17599;DHT22;8918;52.092;5.232;2022-12-01T16:25:36;5.20;99.90
17599;DHT22;8918;52.092;5.232;2022-12-01T16:28:03;5.10;99.90
17599;DHT22;8918;52.092;5.232;2022-12-01T16:30:35;5.10;99.90
17599;DHT22;8918;52.092;5.232;2022-12-01T16:33:04;5.10;99.90
17599;DHT22;8918;52.092;5.232;2022-12-01T16:35:32;5.10;99.90
17599;DHT22;8918;52.092;5.232;2022-12-01T16:38:00;5.00;99.90
17599;DHT22;8918;52.092;5.232;2022-12-01T16:40:28;5.00;99.90
17599;DHT22;8918;52.092;5.232;2022-12-01T16:42:54;4.90;99.90
17599;DHT22;8918;52.092;5.232;2022-12-01T16:45:20;4.80;99.90
17599;DHT22;8918;52.092;5.232;2022-12-01T16:47:48;4.80;99.90
17599;DHT22;8918;52.092;5.232;2022-12-01T16:50:18;4.70;99.90
17599;DHT22;8918;52.092;5.232;2022-12-01T16:52:44;4.60;99.90
17599;DHT22;8918;52.092;5.232;2022-12-01T16:55:45;4.60;99.90
17599;DHT22;8918;52.092;5.232;2022-12-01T16:58:12;4.50;99.90
17599;DHT22;8918;52.092;5.232;2022-12-01T17:00:37;4.50;99.90
17599;DHT22;8918;52.092;5.232;2022-12-01T17:03:04;4.40;99.90
17599;DHT22;8918;52.092;5.232;2022-12-01T17:05:30;4.40;99.90
17599;DHT22;8918;52.092;5.232;2022-12-01T17:07:55;4.40;99.90
17599;DHT22;8918;52.092;5.232;2022-12-01T17:10:21;4.40;99.90
17599;DHT22;8918;52.092;5.232;2022-12-01T17:12:48;4.30;99.90
17599;DHT22;8918;52.092;5.232;2022-12-01T17:15:14;4.20;99.90
17599;DHT22;8918;52.092;5.232;2022-12-01T17:17:39;4.20;99.90
17599;DHT22;8918;52.092;5.232;2022-12-01T17:20:06;4.10;99.90
17599;DHT22;8918;52.092;5.232;2022-12-01T17:22:32;4.10;99.90
17599;DHT22;8918;52.092;5.232;2022-12-01T17:24:58;4.10;99.90
17599;DHT22;8918;52.092;5.232;2022-12-01T17:27:24;4.10;99.90
17599;DHT22;8918;52.092;5.232;2022-12-01T17:29:52;4.10;99.90
17599;DHT22;8918;52.092;5.232;2022-12-01T17:32:17;4.00;99.90
17599;DHT22;8918;52.092;5.232;2022-12-01T17:34:43;4.00;99.90
17599;DHT22;8918;52.092;5.232;2022-12-01T17:37:08;3.90;99.90
17599;DHT22;8918;52.092;5.232;2022-12-01T17:39:34;3.90;99.90
17599;DHT22;8918;52.092;5.232;2022-12-01T17:42:00;3.90;99.90
17599;DHT22;8918;52.092;5.232;2022-12-01T17:44:26;3.90;99.90
17599;DHT22;8918;52.092;5.232;2022-12-01T17:46:51;3.70;99.90
17599;DHT22;8918;52.092;5.232;2022-12-01T17:49:17;3.70;99.90
17599;DHT22;8918;52.092;5.232;2022-12-01T17:51:42;3.70;99.90
17599;DHT22;8918;52.092;5.232;2022-12-01T17:54:08;3.70;99.90
17599;DHT22;8918;52.092;5.232;2022-12-01T17:56:34;3.70;99.90
17599;DHT22;8918;52.092;5.232;2022-12-01T17:59:00;3.60;99.90
17599;DHT22;8918;52.092;5.232;2022-12-01T18:01:27;3.50;99.90
17599;DHT22;8918;52.092;5.232;2022-12-01T18:03:52;3.50;99.90
17599;DHT22;8918;52.092;5.232;2022-12-01T18:06:18;3.40;99.90
17599;DHT22;8918;52.092;5.232;2022-12-01T18:08:44;3.40;99.90
17599;DHT22;8918;52.092;5.232;2022-12-01T18:11:12;3.40;99.90
17599;DHT22;8918;52.092;5.232;2022-12-01T18:13:44;3.40;99.90
17599;DHT22;8918;52.092;5.232;2022-12-01T18:16:16;3.30;99.90
17599;DHT22;8918;52.092;5.232;2022-12-01T18:18:42;3.30;99.90
17599;DHT22;8918;52.092;5.232;2022-12-01T18:21:09;3.30;99.90